Oliver Hazard Perry — KOHZ — position and weather

sailwx.info

Track history (hours):
 
Tides and Currents Weather Stations Pressure Air Temp Water Temp Dewpoint Dewpoint Depression Visibility Wind Speed Wind Dir Waves Ship Positions

Oliver Hazard Perry

Owner: Oliver Hazard Perry Rhode Island, Newport, RI. More information available from US FCC via Universal Licensing System and Coast Guard Vessel Documentation Center.

Last reported at 2017-Mar-25 03:33 UTC. Time now 2017-Mar-25 03:58 UTC.
Position N 25°50' W 080°02'.

Length 61 m; draft 3.5 m.

Type: Other ship. MMSI: 367658110.

Date/timePositionNaut miles runAvg speedWind from/ knotsBaromVisibWave heightAir tempDewpointWater temp
2017-Mar-25 03:33N 25°50' W 080°02'9 8.6
2017-Mar-25 02:33N 25°42' W 079°60'9 8.5
2017-Mar-25 01:33N 25°33' W 079°58'  
2017-Mar-20 01:23N 25°26' W 080°01'4 4.2
2017-Mar-20 00:33N 25°29' W 080°02'5 5.4
2017-Mar-19 23:33N 25°34' W 080°02'4 3.6
2017-Mar-19 22:33N 25°38' W 080°02'3 3.3
2017-Mar-19 21:33N 25°41' W 080°03'2 2.3
2017-Mar-19 20:33N 25°44' W 080°03'1 0.8
2017-Mar-19 19:33N 25°44' W 080°03'3 3.4
2017-Mar-19 18:33N 25°48' W 080°03'5 4.7
2017-Mar-19 17:33N 25°52' W 080°03'5 4.9
2017-Mar-19 16:34N 25°57' W 080°02'5 4.9
2017-Mar-19 15:33N 26°02' W 080°04'5 5.1
2017-Mar-19 14:33N 26°06' W 080°07'0 0.0
2017-Mar-19 13:32N 26°06' W 080°07'0 0.0
2017-Mar-19 12:23N 26°06' W 080°07'0 0.0
2017-Mar-19 11:20N 26°06' W 080°07'0 0.0
2017-Mar-19 10:29N 26°06' W 080°07'0 0.0
2017-Mar-19 09:32N 26°06' W 080°07'0 0.0
2017-Mar-19 08:32N 26°06' W 080°07'0 0.0
2017-Mar-19 07:32N 26°06' W 080°07'0 0.0
2017-Mar-19 06:32N 26°06' W 080°07'0 0.0
2017-Mar-19 05:14N 26°06' W 080°07'0 0.0
2017-Mar-19 04:32N 26°06' W 080°07'0 0.0
2017-Mar-19 03:32N 26°06' W 080°07'0 0.0
2017-Mar-19 02:32N 26°06' W 080°07'0 0.0
2017-Mar-19 01:32N 26°06' W 080°07'0 0.0
2017-Mar-19 00:32N 26°06' W 080°07'0 0.0
2017-Mar-18 23:32N 26°06' W 080°07'0 0.0
2017-Mar-18 22:32N 26°06' W 080°07'0 0.0
2017-Mar-18 21:32N 26°06' W 080°07'0 0.0
2017-Mar-18 20:23N 26°06' W 080°07'0 0.0
2017-Mar-18 19:32N 26°06' W 080°07'0 0.0
2017-Mar-18 18:32N 26°06' W 080°07'0 0.0
2017-Mar-18 17:32N 26°06' W 080°07'0 0.0
2017-Mar-18 16:32N 26°06' W 080°07'0 0.0
2017-Mar-18 15:32N 26°06' W 080°07'0 0.0
2017-Mar-18 14:32N 26°06' W 080°07'0 0.0
2017-Mar-18 13:32N 26°06' W 080°07'0 0.0
2017-Mar-18 12:32N 26°06' W 080°07'0 0.0
2017-Mar-18 11:32N 26°06' W 080°07'0 0.0
2017-Mar-18 10:32N 26°06' W 080°07'0 0.0
2017-Mar-18 09:32N 26°06' W 080°07'0 0.0
2017-Mar-18 08:32N 26°06' W 080°07'0 0.0
2017-Mar-18 07:32N 26°06' W 080°07'0 0.0
2017-Mar-18 06:32N 26°06' W 080°07'0 0.0
2017-Mar-18 05:26N 26°06' W 080°07'0 0.0
2017-Mar-18 04:26N 26°06' W 080°07'0 0.0
2017-Mar-18 03:26N 26°06' W 080°07'0 0.0
2017-Mar-18 02:32N 26°06' W 080°07'0 0.0
2017-Mar-18 01:29N 26°06' W 080°07'0 0.0
2017-Mar-18 00:32N 26°06' W 080°07'0 0.0
2017-Mar-17 23:32N 26°06' W 080°07'0 0.0
2017-Mar-17 22:32N 26°06' W 080°07'0 0.0
2017-Mar-17 21:32N 26°06' W 080°07'0 0.0
2017-Mar-17 20:31N 26°06' W 080°07'0 0.0
2017-Mar-17 19:32N 26°06' W 080°07'0 0.0
2017-Mar-17 18:33N 26°06' W 080°07'2 1.8
2017-Mar-17 17:33N 26°05' W 080°05'5 4.9
2017-Mar-17 16:33N 26°10' W 080°04'6 5.3
2017-Mar-17 15:29N 26°15' W 080°01'4 2.9
2017-Mar-17 14:03N 26°19' W 079°59'2 2.9
2017-Mar-17 13:28N 26°20' W 080°00'2 1.9
2017-Mar-17 12:30N 26°20' W 080°02'4 3.8
2017-Mar-17 11:25N 26°16' W 080°02'3 3.9
2017-Mar-17 10:33N 26°12' W 080°02'4 3.8
2017-Mar-17 09:34N 26°09' W 080°03'4 3.6
2017-Mar-17 08:34N 26°05' W 080°03'4 3.8
2017-Mar-17 07:33N 26°01' W 080°03'4 4.0
2017-Mar-17 06:33N 25°57' W 080°04'4 3.9
2017-Mar-17 05:33N 25°53' W 080°04'4 4.2
2017-Mar-17 04:33N 25°49' W 080°04'5 4.6
2017-Mar-17 03:34N 25°45' W 080°03'5 4.9
2017-Mar-17 02:34N 25°40' W 080°03'5 5.3
2017-Mar-17 01:33N 25°35' W 080°03'  
Track history (hours):
 
Tides and Currents Weather Stations Pressure Air Temp Water Temp Dewpoint Dewpoint Depression Visibility Wind Speed Wind Dir Waves Ship Positions

Oliver Hazard Perry

Owner: Oliver Hazard Perry Rhode Island, Newport, RI. More information available from US FCC via Universal Licensing System and Coast Guard Vessel Documentation Center.

Last reported at 2017-Mar-25 03:33 UTC. Time now 2017-Mar-25 03:58 UTC.
Position N 25°50' W 080°02'.

Length 61 m; draft 3.5 m.

Type: Other ship. MMSI: 367658110.

Date/timePositionNaut miles runAvg speedWind from/ knotsBaromVisibWave heightAir tempDewpointWater temp
2017-Mar-25 03:33N 25°50' W 080°02'9 8.6
2017-Mar-25 02:33N 25°42' W 079°60'9 8.5
2017-Mar-25 01:33N 25°33' W 079°58'  
2017-Mar-20 01:23N 25°26' W 080°01'4 4.2
2017-Mar-20 00:33N 25°29' W 080°02'5 5.4
2017-Mar-19 23:33N 25°34' W 080°02'4 3.6
2017-Mar-19 22:33N 25°38' W 080°02'3 3.3
2017-Mar-19 21:33N 25°41' W 080°03'2 2.3
2017-Mar-19 20:33N 25°44' W 080°03'1 0.8
2017-Mar-19 19:33N 25°44' W 080°03'3 3.4
2017-Mar-19 18:33N 25°48' W 080°03'5 4.7
2017-Mar-19 17:33N 25°52' W 080°03'5 4.9
2017-Mar-19 16:34N 25°57' W 080°02'5 4.9
2017-Mar-19 15:33N 26°02' W 080°04'5 5.1
2017-Mar-19 14:33N 26°06' W 080°07'0 0.0
2017-Mar-19 13:32N 26°06' W 080°07'0 0.0
2017-Mar-19 12:23N 26°06' W 080°07'0 0.0
2017-Mar-19 11:20N 26°06' W 080°07'0 0.0
2017-Mar-19 10:29N 26°06' W 080°07'0 0.0
2017-Mar-19 09:32N 26°06' W 080°07'0 0.0
2017-Mar-19 08:32N 26°06' W 080°07'0 0.0
2017-Mar-19 07:32N 26°06' W 080°07'0 0.0
2017-Mar-19 06:32N 26°06' W 080°07'0 0.0
2017-Mar-19 05:14N 26°06' W 080°07'0 0.0
2017-Mar-19 04:32N 26°06' W 080°07'0 0.0
2017-Mar-19 03:32N 26°06' W 080°07'0 0.0
2017-Mar-19 02:32N 26°06' W 080°07'0 0.0
2017-Mar-19 01:32N 26°06' W 080°07'0 0.0
2017-Mar-19 00:32N 26°06' W 080°07'0 0.0
2017-Mar-18 23:32N 26°06' W 080°07'0 0.0
2017-Mar-18 22:32N 26°06' W 080°07'0 0.0
2017-Mar-18 21:32N 26°06' W 080°07'0 0.0
2017-Mar-18 20:23N 26°06' W 080°07'0 0.0
2017-Mar-18 19:32N 26°06' W 080°07'0 0.0
2017-Mar-18 18:32N 26°06' W 080°07'0 0.0
2017-Mar-18 17:32N 26°06' W 080°07'0 0.0
2017-Mar-18 16:32N 26°06' W 080°07'0 0.0
2017-Mar-18 15:32N 26°06' W 080°07'0 0.0
2017-Mar-18 14:32N 26°06' W 080°07'0 0.0
2017-Mar-18 13:32N 26°06' W 080°07'0 0.0
2017-Mar-18 12:32N 26°06' W 080°07'0 0.0
2017-Mar-18 11:32N 26°06' W 080°07'0 0.0
2017-Mar-18 10:32N 26°06' W 080°07'0 0.0
2017-Mar-18 09:32N 26°06' W 080°07'0 0.0
2017-Mar-18 08:32N 26°06' W 080°07'0 0.0
2017-Mar-18 07:32N 26°06' W 080°07'0 0.0
2017-Mar-18 06:32N 26°06' W 080°07'0 0.0
2017-Mar-18 05:26N 26°06' W 080°07'0 0.0
2017-Mar-18 04:26N 26°06' W 080°07'0 0.0
2017-Mar-18 03:26N 26°06' W 080°07'0 0.0
2017-Mar-18 02:32N 26°06' W 080°07'0 0.0
2017-Mar-18 01:29N 26°06' W 080°07'0 0.0
2017-Mar-18 00:32N 26°06' W 080°07'0 0.0
2017-Mar-17 23:32N 26°06' W 080°07'0 0.0
2017-Mar-17 22:32N 26°06' W 080°07'0 0.0
2017-Mar-17 21:32N 26°06' W 080°07'0 0.0
2017-Mar-17 20:31N 26°06' W 080°07'0 0.0
2017-Mar-17 19:32N 26°06' W 080°07'0 0.0
2017-Mar-17 18:33N 26°06' W 080°07'2 1.8
2017-Mar-17 17:33N 26°05' W 080°05'5 4.9
2017-Mar-17 16:33N 26°10' W 080°04'6 5.3
2017-Mar-17 15:29N 26°15' W 080°01'4 2.9
2017-Mar-17 14:03N 26°19' W 079°59'2 2.9
2017-Mar-17 13:28N 26°20' W 080°00'2 1.9
2017-Mar-17 12:30N 26°20' W 080°02'4 3.8
2017-Mar-17 11:25N 26°16' W 080°02'3 3.9
2017-Mar-17 10:33N 26°12' W 080°02'4 3.8
2017-Mar-17 09:34N 26°09' W 080°03'4 3.6
2017-Mar-17 08:34N 26°05' W 080°03'4 3.8
2017-Mar-17 07:33N 26°01' W 080°03'4 4.0
2017-Mar-17 06:33N 25°57' W 080°04'4 3.9
2017-Mar-17 05:33N 25°53' W 080°04'4 4.2
2017-Mar-17 04:33N 25°49' W 080°04'5 4.6
2017-Mar-17 03:34N 25°45' W 080°03'5 4.9
2017-Mar-17 02:34N 25°40' W 080°03'5 5.3
2017-Mar-17 01:33N 25°35' W 080°03'  

Dump ship's entire track history